createdAt,value
2022-10-09T00:01:23.956Z,4.68
2022-10-09T00:03:54.720Z,4.55
2022-10-09T00:06:32.470Z,4.72
2022-10-09T00:09:02.042Z,4.32
2022-10-09T00:11:30.886Z,4.85
2022-10-09T00:13:58.892Z,4.45
2022-10-09T00:16:27.115Z,5.13
2022-10-09T00:18:54.372Z,4.63
2022-10-09T00:21:26.817Z,5.18
2022-10-09T00:23:56.951Z,4.53
2022-10-09T00:26:24.634Z,4.70
2022-10-09T00:28:52.582Z,4.57
2022-10-09T00:31:20.685Z,4.68
2022-10-09T00:33:48.067Z,4.80
2022-10-09T00:36:21.980Z,5.60
2022-10-09T00:38:49.597Z,4.57
2022-10-09T00:41:21.534Z,5.03
2022-10-09T00:43:55.476Z,5.47
2022-10-09T00:46:48.809Z,5.32
2022-10-09T00:49:26.140Z,5.45
2022-10-09T00:51:55.862Z,5.65
2022-10-09T00:54:25.721Z,5.35
2022-10-09T00:56:53.447Z,5.38
2022-10-09T00:59:20.960Z,5.30
2022-10-09T01:01:48.129Z,5.57
2022-10-09T01:04:15.646Z,6.00
2022-10-09T01:07:00.587Z,5.53
2022-10-09T01:10:02.881Z,5.50
2022-10-09T01:12:51.415Z,5.15
2022-10-09T01:15:29.592Z,5.55
2022-10-09T01:18:49.908Z,5.60
2022-10-09T01:21:23.212Z,5.72
2022-10-09T01:24:08.604Z,5.30
2022-10-09T01:27:00.424Z,5.25
2022-10-09T01:29:35.496Z,6.07
2022-10-09T01:32:04.329Z,5.50
2022-10-09T01:34:32.304Z,5.43
2022-10-09T01:37:00.249Z,5.97
2022-10-09T01:39:28.859Z,5.80
2022-10-09T01:41:57.032Z,6.13
2022-10-09T01:44:28.638Z,6.38
2022-10-09T01:46:56.731Z,6.35
2022-10-09T01:49:42.315Z,5.95
2022-10-09T01:52:19.529Z,7.10
2022-10-09T01:55:06.807Z,5.60
2022-10-09T01:57:40.775Z,5.35
2022-10-09T02:00:11.490Z,5.85
2022-10-09T02:02:42.691Z,5.72
2022-10-09T02:05:25.807Z,5.82
2022-10-09T02:07:53.617Z,6.32
2022-10-09T02:10:22.196Z,6.28
2022-10-09T02:12:59.470Z,6.28
2022-10-09T02:15:41.915Z,6.80
2022-10-09T02:18:13.562Z,6.45
2022-10-09T02:20:48.566Z,6.38
2022-10-09T02:23:18.173Z,6.13
2022-10-09T02:25:45.279Z,6.75
2022-10-09T02:28:12.405Z,6.82
2022-10-09T02:30:57.446Z,6.35
2022-10-09T02:33:32.624Z,6.50
2022-10-09T02:36:00.262Z,6.68
2022-10-09T02:38:27.314Z,6.75
2022-10-09T02:40:59.779Z,6.72
2022-10-09T02:43:27.139Z,6.00
2022-10-09T02:45:54.236Z,5.82
2022-10-09T02:48:21.693Z,6.32
2022-10-09T02:50:48.746Z,6.60
2022-10-09T02:53:15.744Z,5.53
2022-10-09T02:55:42.712Z,5.90
2022-10-09T02:58:09.823Z,6.60
2022-10-09T03:00:39.179Z,6.15
2022-10-09T03:03:06.375Z,6.00
2022-10-09T03:05:33.377Z,6.03
2022-10-09T03:08:00.322Z,6.03
2022-10-09T03:10:27.285Z,6.32
2022-10-09T03:12:54.371Z,6.80
2022-10-09T03:15:21.288Z,6.55
2022-10-09T03:17:48.289Z,5.72
2022-10-09T03:20:15.592Z,5.90
2022-10-09T03:22:42.613Z,6.40
2022-10-09T03:25:09.814Z,6.47
2022-10-09T03:27:36.764Z,5.93
2022-10-09T03:30:04.880Z,5.80
2022-10-09T03:32:31.951Z,6.45
2022-10-09T03:34:58.998Z,5.85
2022-10-09T03:37:25.938Z,6.13
2022-10-09T03:39:52.893Z,5.97
2022-10-09T03:42:19.840Z,5.97
2022-10-09T03:44:46.768Z,5.85
2022-10-09T03:47:13.781Z,6.00
2022-10-09T03:49:40.942Z,6.88
2022-10-09T03:52:08.012Z,6.70
2022-10-09T03:54:35.066Z,6.80
2022-10-09T03:57:01.987Z,6.80
2022-10-09T03:59:29.041Z,7.55
2022-10-09T04:01:56.017Z,6.95
2022-10-09T04:04:22.927Z,6.50
2022-10-09T04:06:49.882Z,7.70
2022-10-09T04:09:16.922Z,6.40
2022-10-09T04:11:43.811Z,6.68
2022-10-09T04:14:10.953Z,6.68
2022-10-09T04:16:38.309Z,5.82
2022-10-09T04:19:05.269Z,6.25
2022-10-09T04:21:33.657Z,6.50
2022-10-09T04:24:00.709Z,5.93
2022-10-09T04:26:27.624Z,6.13
2022-10-09T04:28:54.970Z,6.72
2022-10-09T04:31:22.119Z,6.20
2022-10-09T04:33:49.028Z,6.85
2022-10-09T04:36:16.072Z,6.10
2022-10-09T04:38:43.187Z,5.72
2022-10-09T04:41:10.870Z,5.85
2022-10-09T04:43:37.775Z,5.78
2022-10-09T04:46:11.923Z,6.10
2022-10-09T04:48:41.395Z,6.15
2022-10-09T04:51:08.798Z,6.00
2022-10-09T04:53:37.303Z,6.43
2022-10-09T04:56:17.286Z,6.00
2022-10-09T04:58:44.699Z,5.47
2022-10-09T05:01:23.253Z,5.25
2022-10-09T05:03:51.280Z,5.65
2022-10-09T05:06:19.807Z,5.50
2022-10-09T05:08:47.598Z,6.32
2022-10-09T05:11:18.746Z,6.15
2022-10-09T05:13:50.065Z,6.93
2022-10-09T05:16:24.549Z,6.43
2022-10-09T05:18:58.101Z,5.88
2022-10-09T05:21:25.954Z,6.25
2022-10-09T05:23:56.167Z,6.10
2022-10-09T05:26:25.562Z,6.35
2022-10-09T05:28:52.955Z,6.80
2022-10-09T05:31:29.441Z,7.00
2022-10-09T05:34:01.642Z,6.40
2022-10-09T05:36:28.702Z,7.05
2022-10-09T05:38:57.083Z,7.32
2022-10-09T05:41:24.138Z,6.60
2022-10-09T05:43:51.242Z,6.97
2022-10-09T05:46:25.443Z,6.90
2022-10-09T05:49:07.627Z,6.95
2022-10-09T05:51:38.159Z,7.65
2022-10-09T05:54:06.763Z,7.03
2022-10-09T05:56:37.533Z,6.72
2022-10-09T05:59:10.540Z,7.05
2022-10-09T06:01:44.308Z,7.32
2022-10-09T06:04:23.939Z,6.65
2022-10-09T06:06:51.828Z,6.57
2022-10-09T06:09:25.432Z,6.57
2022-10-09T06:11:54.211Z,6.35
2022-10-09T06:14:22.179Z,6.40
2022-10-09T06:16:50.081Z,6.70
2022-10-09T06:19:19.798Z,6.60
2022-10-09T06:21:47.738Z,6.95
2022-10-09T06:24:23.286Z,6.25
2022-10-09T06:26:52.693Z,6.07
2022-10-09T06:29:19.669Z,6.80
2022-10-09T06:31:46.722Z,5.93
2022-10-09T06:34:13.647Z,6.28
2022-10-09T06:36:40.827Z,7.22
2022-10-09T06:39:10.944Z,6.63
2022-10-09T06:41:38.079Z,7.22
2022-10-09T06:44:23.230Z,7.47
2022-10-09T06:46:50.350Z,7.47
2022-10-09T06:49:17.266Z,7.13
2022-10-09T06:51:44.283Z,6.90
2022-10-09T06:54:14.457Z,6.93
2022-10-09T06:56:41.738Z,7.28
2022-10-09T06:59:10.503Z,7.07
2022-10-09T07:01:37.817Z,7.60
2022-10-09T07:04:08.962Z,7.88
2022-10-09T07:06:41.892Z,7.93
2022-10-09T07:09:12.587Z,7.93
2022-10-09T07:11:43.306Z,8.10
2022-10-09T07:14:12.760Z,8.95
2022-10-09T07:16:44.097Z,8.77
2022-10-09T07:19:12.958Z,9.30
2022-10-09T07:21:43.062Z,9.13
2022-10-09T07:24:11.121Z,9.50
2022-10-09T07:26:42.390Z,9.18
2022-10-09T07:29:12.019Z,9.07
2022-10-09T07:31:39.343Z,8.93
2022-10-09T07:34:06.462Z,9.57
2022-10-09T07:36:33.844Z,9.57
2022-10-09T07:39:01.449Z,9.50
2022-10-09T07:41:29.975Z,9.75
2022-10-09T07:43:57.883Z,9.98
2022-10-09T07:46:33.004Z,9.48
2022-10-09T07:49:01.849Z,9.48
2022-10-09T07:51:29.638Z,9.65
2022-10-09T07:53:57.342Z,9.57
2022-10-09T07:56:31.235Z,9.40
2022-10-09T07:59:05.209Z,10.32
2022-10-09T08:01:34.576Z,9.68
2022-10-09T08:04:02.872Z,9.73
2022-10-09T08:06:30.468Z,9.50
2022-10-09T08:08:59.862Z,9.93
2022-10-09T08:11:29.322Z,9.25
2022-10-09T08:13:56.744Z,8.48
2022-10-09T08:16:25.922Z,8.50
2022-10-09T08:19:01.934Z,8.25
2022-10-09T08:23:58.873Z,8.07
2022-10-09T08:26:28.802Z,8.50
2022-10-09T08:29:00.049Z,8.52
2022-10-09T08:31:28.734Z,8.50
2022-10-09T08:33:58.757Z,9.10
2022-10-09T08:36:26.633Z,8.10
2022-10-09T08:38:54.129Z,7.90
2022-10-09T08:41:33.033Z,8.10
2022-10-09T08:44:09.913Z,8.00
2022-10-09T08:47:10.817Z,7.90
2022-10-09T08:50:01.668Z,7.95
2022-10-09T08:53:37.742Z,7.95
2022-10-09T08:56:12.073Z,7.70
2022-10-09T08:58:41.998Z,7.97
2022-10-09T09:01:24.102Z,7.40
2022-10-09T09:04:29.710Z,6.97
2022-10-09T09:07:27.847Z,7.38
2022-10-09T09:10:04.692Z,6.90
2022-10-09T09:13:08.248Z,7.07
2022-10-09T09:16:20.335Z,6.53
2022-10-09T09:19:16.590Z,5.70
2022-10-09T09:21:53.192Z,6.03
2022-10-09T09:24:41.885Z,5.88
2022-10-09T09:27:19.040Z,5.30
2022-10-09T09:30:19.775Z,5.28
2022-10-09T09:33:14.126Z,5.07
2022-10-09T09:35:57.876Z,4.88
2022-10-09T09:38:24.947Z,4.80
2022-10-09T09:40:53.490Z,5.20
2022-10-09T09:43:23.728Z,4.18
2022-10-09T09:45:55.223Z,4.05
2022-10-09T09:48:49.079Z,3.97
2022-10-09T09:51:28.636Z,4.15
2022-10-09T09:54:00.551Z,4.40
2022-10-09T09:57:10.466Z,4.03
2022-10-09T09:59:43.286Z,4.55
2022-10-09T10:02:26.163Z,4.22
2022-10-09T10:04:56.684Z,4.38
2022-10-09T10:07:35.608Z,4.15
2022-10-09T10:10:24.946Z,3.70
2022-10-09T10:12:52.575Z,3.55
2022-10-09T10:15:30.361Z,3.80
2022-10-09T10:18:15.126Z,3.90
2022-10-09T10:20:53.784Z,3.40
2022-10-09T10:23:34.484Z,3.47
2022-10-09T10:26:28.070Z,3.53
2022-10-09T10:29:14.613Z,3.13
2022-10-09T10:32:12.120Z,3.65
2022-10-09T10:34:51.563Z,2.92
2022-10-09T10:37:40.421Z,3.70
2022-10-09T10:40:22.377Z,3.42
2022-10-09T10:43:10.728Z,3.15
2022-10-09T10:45:58.370Z,3.60
2022-10-09T10:48:46.980Z,3.10
2022-10-09T10:51:13.797Z,3.33
2022-10-09T10:54:09.074Z,3.90
2022-10-09T10:56:41.744Z,3.72
2022-10-09T10:59:40.041Z,2.97
2022-10-09T11:02:09.862Z,3.38
2022-10-09T11:04:58.324Z,3.28
2022-10-09T11:08:08.629Z,3.10
2022-10-09T11:10:53.135Z,3.22
2022-10-09T11:13:33.564Z,2.83
2022-10-09T11:16:26.549Z,2.88
2022-10-09T11:19:11.341Z,2.25
2022-10-09T11:22:10.749Z,2.80
2022-10-09T11:25:09.399Z,2.95
2022-10-09T11:28:02.946Z,2.78
2022-10-09T11:30:51.391Z,3.30
2022-10-09T11:33:40.087Z,3.00
2022-10-09T11:36:13.321Z,2.83
2022-10-09T11:38:51.918Z,2.83
2022-10-09T11:41:19.892Z,3.03
2022-10-09T11:44:34.756Z,3.10
2022-10-09T11:47:44.829Z,3.47
2022-10-09T11:50:33.162Z,3.17
2022-10-09T11:53:11.856Z,3.45
2022-10-09T11:55:39.500Z,3.55
2022-10-09T11:58:24.655Z,3.72
2022-10-09T12:00:57.262Z,3.60
2022-10-09T12:03:35.147Z,3.65
2022-10-09T12:06:16.139Z,3.47
2022-10-09T12:08:56.211Z,3.08
2022-10-09T12:11:24.404Z,3.28
2022-10-09T12:13:58.515Z,3.20
2022-10-09T12:16:33.419Z,3.90
2022-10-09T12:19:05.628Z,3.60
2022-10-09T12:21:46.079Z,3.60
2022-10-09T12:24:19.996Z,3.70
2022-10-09T12:26:49.259Z,3.90
2022-10-09T12:29:44.890Z,4.22
2022-10-09T12:32:22.937Z,3.90
2022-10-09T12:34:51.407Z,3.70
2022-10-09T12:37:22.811Z,3.65
2022-10-09T12:39:50.503Z,3.60
2022-10-09T12:42:27.413Z,3.58
2022-10-09T12:44:55.903Z,3.45
2022-10-09T12:47:27.374Z,3.55
2022-10-09T12:50:31.544Z,3.50
2022-10-09T12:53:02.598Z,4.00
2022-10-09T12:55:36.604Z,3.15
2022-10-09T12:58:29.694Z,3.25
2022-10-09T13:01:04.030Z,2.85
2022-10-09T13:03:41.446Z,3.50
2022-10-09T13:06:17.659Z,2.75
2022-10-09T13:08:45.633Z,3.13
2022-10-09T13:11:31.601Z,3.20
2022-10-09T13:13:58.830Z,2.83
2022-10-09T13:16:26.699Z,2.60
2022-10-09T13:19:04.393Z,2.65
2022-10-09T13:21:35.286Z,2.72
2022-10-09T13:24:13.370Z,2.40
2022-10-09T13:26:43.486Z,2.15
2022-10-09T13:29:13.554Z,2.45
2022-10-09T13:31:43.681Z,2.17
2022-10-09T13:34:13.192Z,2.50
2022-10-09T13:36:40.968Z,2.53
2022-10-09T13:39:14.453Z,2.55
2022-10-09T13:41:43.412Z,2.67
2022-10-09T13:44:10.816Z,2.30
2022-10-09T13:46:37.914Z,2.22
2022-10-09T13:49:05.093Z,2.13
2022-10-09T13:51:32.687Z,2.13
2022-10-09T13:53:59.754Z,2.80
2022-10-09T13:56:26.756Z,2.00
2022-10-09T13:58:55.103Z,2.47
2022-10-09T14:01:22.267Z,2.10
2022-10-09T14:03:49.642Z,2.13
2022-10-09T14:06:16.628Z,2.17
2022-10-09T14:08:43.698Z,2.10
2022-10-09T14:11:10.830Z,2.08
2022-10-09T14:13:37.953Z,1.90
2022-10-09T14:16:06.898Z,2.10
2022-10-09T14:18:34.697Z,2.20
2022-10-09T14:21:14.637Z,1.90
2022-10-09T14:23:42.359Z,1.85
2022-10-09T14:26:10.119Z,2.20
2022-10-09T14:28:37.226Z,2.22
2022-10-09T14:31:06.592Z,1.95
2022-10-09T14:33:33.641Z,2.60
2022-10-09T14:36:14.045Z,2.35
2022-10-09T14:38:42.682Z,2.45
2022-10-09T14:41:10.068Z,2.20
2022-10-09T14:43:37.217Z,1.92
2022-10-09T14:46:12.082Z,2.15
2022-10-09T14:48:40.204Z,2.30
2022-10-09T14:51:11.161Z,2.40
2022-10-09T14:53:38.243Z,1.73
2022-10-09T14:56:08.222Z,2.00
2022-10-09T14:58:37.062Z,1.90
2022-10-09T15:01:05.067Z,2.08
2022-10-09T15:03:34.425Z,2.05
2022-10-09T15:06:05.314Z,1.90
2022-10-09T15:08:34.541Z,1.95
2022-10-09T15:11:02.354Z,2.00
2022-10-09T15:13:29.760Z,2.03
2022-10-09T15:16:09.250Z,1.98
2022-10-09T15:18:36.374Z,2.17
2022-10-09T15:21:04.271Z,2.00
2022-10-09T15:23:31.586Z,2.00
2022-10-09T15:26:00.687Z,2.33
2022-10-09T15:28:28.090Z,1.92
2022-10-09T15:31:00.210Z,2.28
2022-10-09T15:33:27.777Z,2.10
2022-10-09T15:35:54.744Z,1.80
2022-10-09T15:38:25.142Z,2.10
2022-10-09T15:40:55.263Z,2.35
2022-10-09T15:43:25.692Z,2.10
2022-10-09T15:46:01.306Z,2.40
2022-10-09T15:48:28.248Z,2.33
2022-10-09T15:50:55.299Z,2.45
2022-10-09T15:53:24.460Z,2.20
2022-10-09T15:55:53.316Z,2.58
2022-10-09T15:58:20.768Z,2.45
2022-10-09T16:00:49.852Z,2.60
2022-10-09T16:03:18.867Z,2.30
2022-10-09T16:05:50.841Z,2.38
2022-10-09T16:08:19.167Z,1.83
2022-10-09T16:10:51.863Z,2.05
2022-10-09T16:13:19.551Z,1.70
2022-10-09T16:15:47.624Z,2.40
2022-10-09T16:18:19.751Z,2.05
2022-10-09T16:20:48.197Z,1.80
2022-10-09T16:23:16.814Z,2.40
2022-10-09T16:25:44.299Z,2.10
2022-10-09T16:28:13.215Z,2.63
2022-10-09T16:30:44.965Z,1.90
2022-10-09T16:33:13.027Z,1.83
2022-10-09T16:35:40.458Z,2.33
2022-10-09T16:38:07.634Z,1.70
2022-10-09T16:41:00.962Z,2.03
2022-10-09T16:43:21.820Z,2.20
2022-10-09T16:45:48.742Z,2.05
2022-10-09T16:48:15.864Z,2.40
2022-10-09T16:50:45.814Z,1.75
2022-10-09T16:53:12.904Z,1.92
2022-10-09T16:55:39.964Z,2.25
2022-10-09T16:58:07.036Z,2.00
2022-10-09T17:00:34.211Z,2.40
2022-10-09T17:03:01.333Z,2.60
2022-10-09T17:05:28.431Z,2.55
2022-10-09T17:07:55.370Z,2.67
2022-10-09T17:10:22.622Z,2.70
2022-10-09T17:12:49.675Z,2.63
2022-10-09T17:15:16.878Z,2.50
2022-10-09T17:17:43.827Z,3.05
2022-10-09T17:20:10.826Z,2.80
2022-10-09T17:22:37.924Z,2.63
2022-10-09T17:25:05.634Z,3.03
2022-10-09T17:27:32.652Z,2.92
2022-10-09T17:29:59.663Z,3.10
2022-10-09T17:32:27.175Z,3.03
2022-10-09T17:34:54.077Z,2.92
2022-10-09T17:37:21.037Z,2.88
2022-10-09T17:39:52.033Z,3.33
2022-10-09T17:42:19.438Z,2.95
2022-10-09T17:44:46.440Z,3.58
2022-10-09T17:47:13.344Z,3.28
2022-10-09T17:49:40.444Z,3.30
2022-10-09T17:52:07.566Z,3.03
2022-10-09T17:54:34.505Z,2.92
2022-10-09T17:57:01.531Z,3.35
2022-10-09T17:59:28.739Z,3.63
2022-10-09T18:01:55.939Z,3.53
2022-10-09T18:04:22.883Z,3.33
2022-10-09T18:06:49.826Z,3.15
2022-10-09T18:09:17.006Z,2.95
2022-10-09T18:11:44.222Z,3.42
2022-10-09T18:14:11.767Z,3.05
2022-10-09T18:16:40.078Z,3.38
2022-10-09T18:19:13.885Z,3.50
2022-10-09T18:21:45.217Z,3.30
2022-10-09T18:24:13.179Z,3.25
2022-10-09T18:26:40.939Z,3.42
2022-10-09T18:29:08.277Z,3.60
2022-10-09T18:31:35.648Z,3.88
2022-10-09T18:34:02.652Z,3.80
2022-10-09T18:36:31.743Z,3.45
2022-10-09T18:39:09.574Z,3.53
2022-10-09T18:41:37.352Z,3.88
2022-10-09T18:44:06.860Z,3.90
2022-10-09T18:46:41.516Z,3.80
2022-10-09T18:49:11.946Z,3.53
2022-10-09T18:51:41.268Z,3.83
2022-10-09T18:54:09.240Z,3.42
2022-10-09T18:56:37.507Z,3.60
2022-10-09T18:59:10.474Z,3.63
2022-10-09T19:01:37.499Z,3.75
2022-10-09T19:04:04.590Z,3.65
2022-10-09T19:06:31.966Z,3.97
2022-10-09T19:09:00.871Z,4.00
2022-10-09T19:11:30.288Z,3.90
2022-10-09T19:14:01.845Z,3.92
2022-10-09T19:16:30.874Z,3.83
2022-10-09T19:18:58.802Z,3.90
2022-10-09T19:21:26.333Z,4.20
2022-10-09T19:23:54.309Z,4.38
2022-10-09T19:26:22.726Z,4.00
2022-10-09T19:28:50.007Z,4.38
2022-10-09T19:31:18.485Z,5.28
2022-10-09T19:33:45.517Z,4.70
2022-10-09T19:36:13.933Z,4.68
2022-10-09T19:38:41.812Z,4.40
2022-10-09T19:41:13.206Z,4.70
2022-10-09T19:43:41.176Z,4.65
2022-10-09T19:46:12.714Z,4.82
2022-10-09T19:48:40.001Z,4.50
2022-10-09T19:51:15.473Z,4.45
2022-10-09T19:53:43.529Z,4.18
2022-10-09T19:56:16.941Z,3.85
2022-10-09T19:58:45.852Z,4.38
2022-10-09T20:01:15.477Z,3.60
2022-10-09T20:03:42.898Z,4.72
2022-10-09T20:06:10.741Z,4.28
2022-10-09T20:08:39.948Z,4.43
2022-10-09T20:11:07.904Z,4.35
2022-10-09T20:13:37.153Z,3.85
2022-10-09T20:16:09.084Z,4.25
2022-10-09T20:18:39.331Z,4.20
2022-10-09T20:21:06.752Z,3.88
2022-10-09T20:23:33.693Z,4.18
2022-10-09T20:26:07.960Z,4.03
2022-10-09T20:28:37.209Z,4.35
2022-10-09T20:31:07.890Z,4.43
2022-10-09T20:33:37.163Z,4.40
2022-10-09T20:36:08.704Z,4.20
2022-10-09T20:38:35.791Z,4.57
2022-10-09T20:41:07.402Z,4.43
2022-10-09T20:43:35.881Z,4.10
2022-10-09T20:46:13.770Z,4.45
2022-10-09T20:48:44.585Z,4.30
2022-10-09T20:51:11.720Z,4.10
2022-10-09T20:53:38.867Z,4.60
2022-10-09T20:56:09.390Z,4.43
2022-10-09T20:58:36.826Z,4.47
2022-10-09T21:01:06.216Z,3.97
2022-10-09T21:03:35.752Z,4.32
2022-10-09T21:06:09.155Z,4.30
2022-10-09T21:08:36.468Z,4.32
2022-10-09T21:11:10.649Z,3.92
2022-10-09T21:13:39.632Z,3.55
2022-10-09T21:16:10.173Z,4.32
2022-10-09T21:18:39.062Z,3.63
2022-10-09T21:21:14.932Z,3.95
2022-10-09T21:23:43.660Z,4.47
2022-10-09T21:26:13.994Z,3.92
2022-10-09T21:28:41.969Z,3.50
2022-10-09T21:31:17.693Z,4.10
2022-10-09T21:33:45.674Z,3.97
2022-10-09T21:37:02.296Z,4.10
2022-10-09T21:39:30.959Z,4.25
2022-10-09T21:41:58.005Z,4.10
2022-10-09T21:44:24.980Z,4.00
2022-10-09T21:46:51.955Z,4.07
2022-10-09T21:49:25.232Z,4.05
2022-10-09T21:51:53.262Z,4.00
2022-10-09T21:54:21.199Z,3.83
2022-10-09T21:56:48.697Z,4.05
2022-10-09T21:59:16.040Z,3.95
2022-10-09T22:01:43.107Z,4.43
2022-10-09T22:04:10.218Z,4.35
2022-10-09T22:06:37.216Z,4.05
2022-10-09T22:09:04.178Z,4.40
2022-10-09T22:11:31.094Z,3.50
2022-10-09T22:13:58.172Z,4.22
2022-10-09T22:16:25.104Z,3.97
2022-10-09T22:18:52.056Z,3.70
2022-10-09T22:21:19.517Z,4.70
2022-10-09T22:23:46.538Z,4.38
2022-10-09T22:26:18.258Z,4.03
2022-10-09T22:28:47.742Z,4.32
2022-10-09T22:31:22.077Z,4.75
2022-10-09T22:33:58.685Z,4.57
2022-10-09T22:36:30.027Z,4.75
2022-10-09T22:39:00.698Z,4.70
2022-10-09T22:41:29.467Z,4.85
2022-10-09T22:43:58.309Z,4.68
2022-10-09T22:46:40.944Z,4.35
2022-10-09T22:49:11.443Z,4.78
2022-10-09T22:51:38.388Z,4.80
2022-10-09T22:54:06.402Z,4.30
2022-10-09T22:56:43.377Z,5.03
2022-10-09T22:59:14.014Z,4.78
2022-10-09T23:01:51.365Z,4.35
2022-10-09T23:04:19.551Z,4.40
2022-10-09T23:06:51.629Z,4.55
2022-10-09T23:09:19.562Z,4.13
2022-10-09T23:11:46.845Z,4.78
2022-10-09T23:14:14.458Z,4.25
2022-10-09T23:16:42.352Z,4.30
2022-10-09T23:19:10.175Z,4.40
2022-10-09T23:21:39.506Z,4.55
2022-10-09T23:24:07.729Z,4.60
2022-10-09T23:26:36.143Z,4.40
2022-10-09T23:29:17.614Z,4.55
2022-10-09T23:31:44.893Z,4.80
2022-10-09T23:34:12.270Z,4.82
2022-10-09T23:36:39.219Z,5.05
2022-10-09T23:39:07.113Z,4.60
2022-10-09T23:41:34.371Z,4.93
2022-10-09T23:44:01.385Z,4.55
2022-10-09T23:46:32.890Z,5.05
2022-10-09T23:49:00.829Z,4.68
2022-10-09T23:51:28.559Z,4.68
2022-10-09T23:53:56.382Z,4.22
2022-10-09T23:56:26.086Z,4.88
2022-10-09T23:58:54.462Z,5.22
